createdAt,value
2019-05-05T00:02:06.264Z,93978.48
2019-05-05T00:04:32.291Z,93975.41
2019-05-05T00:06:58.293Z,93980.33
2019-05-05T00:09:25.217Z,93985.65
2019-05-05T00:11:50.313Z,93985.23
2019-05-05T00:14:16.309Z,93990.05
2019-05-05T00:16:44.377Z,93986.98
2019-05-05T00:19:08.323Z,93977.66
2019-05-05T00:21:34.415Z,93972.05
2019-05-05T00:24:00.362Z,93973.39
2019-05-05T00:26:26.368Z,93980.05
2019-05-05T00:28:52.387Z,93979.63
2019-05-05T00:31:18.383Z,93984.55
2019-05-05T00:33:44.954Z,94001.34
2019-05-05T00:36:10.407Z,93992.12
2019-05-05T00:38:36.417Z,93979.22
2019-05-05T00:41:02.432Z,93992.12
2019-05-05T00:43:28.426Z,93998.38
2019-05-05T00:45:55.654Z,93989.97
2019-05-05T00:48:20.462Z,93993.17
2019-05-05T00:50:46.481Z,94003.30
2019-05-05T00:53:14.415Z,93998.92
2019-05-05T00:55:38.491Z,93988.27
2019-05-05T00:58:05.230Z,93990.92
2019-05-05T01:00:30.509Z,93986.52
2019-05-05T01:02:56.526Z,93988.77
2019-05-05T01:05:22.528Z,93988.36
2019-05-05T01:07:48.542Z,93988.36
2019-05-05T01:10:14.540Z,93991.02
2019-05-05T01:12:40.535Z,93982.63
2019-05-05T01:15:06.554Z,93974.22
2019-05-05T01:17:34.394Z,93983.55
2019-05-05T01:20:03.269Z,93975.69
2019-05-05T01:22:25.083Z,93971.69
2019-05-05T01:24:50.591Z,93956.63
2019-05-05T01:27:16.588Z,93960.12
2019-05-05T01:29:42.600Z,93958.24
2019-05-05T01:32:08.628Z,93961.03
2019-05-05T01:34:34.921Z,93969.44
2019-05-05T01:37:00.639Z,93949.80
2019-05-05T01:39:26.643Z,93959.80
2019-05-05T01:41:54.273Z,93960.34
2019-05-05T01:44:18.661Z,93951.02
2019-05-05T01:46:44.661Z,93949.28
2019-05-05T01:49:10.670Z,93961.67
2019-05-05T01:51:36.686Z,93953.69
2019-05-05T01:54:02.676Z,93959.39
2019-05-05T01:56:28.698Z,93944.88
2019-05-05T01:58:54.886Z,93947.41
2019-05-05T02:01:20.714Z,93947.54
2019-05-05T02:03:46.703Z,93954.61
2019-05-05T02:06:14.217Z,93949.80
2019-05-05T02:08:38.710Z,93948.05
2019-05-05T02:11:05.309Z,93946.72
2019-05-05T02:13:30.734Z,93944.05
2019-05-05T02:15:56.731Z,93948.59
2019-05-05T02:18:22.745Z,93950.30
2019-05-05T02:20:48.742Z,93954.30
2019-05-05T02:23:15.157Z,93948.97
2019-05-05T02:25:40.763Z,93941.52
2019-05-05T02:28:06.777Z,93936.61
2019-05-05T02:30:35.758Z,93935.78
2019-05-05T02:32:58.783Z,93930.46
2019-05-05T02:35:25.774Z,93938.45
2019-05-05T02:37:50.792Z,93930.05
2019-05-05T02:40:16.809Z,93930.46
2019-05-05T02:42:44.924Z,93917.66
2019-05-05T02:45:08.813Z,93913.25
2019-05-05T02:47:35.041Z,93930.05
2019-05-05T02:50:00.807Z,93912.97
2019-05-05T02:52:26.821Z,93908.05
2019-05-05T02:54:53.643Z,93904.06
2019-05-05T02:57:18.828Z,93910.30
2019-05-05T02:59:44.844Z,93913.79
2019-05-05T03:02:10.847Z,93904.47
2019-05-05T03:04:36.867Z,93896.98
2019-05-05T03:07:04.635Z,93895.80
2019-05-05T03:09:28.859Z,93889.92
2019-05-05T03:11:54.883Z,93890.74
2019-05-05T03:14:20.870Z,93895.37
2019-05-05T03:16:46.896Z,93905.49
2019-05-05T03:19:14.271Z,93909.11
2019-05-05T03:21:38.919Z,93902.03
2019-05-05T03:24:04.917Z,93902.55
2019-05-05T03:26:30.942Z,93895.89
2019-05-05T03:28:56.959Z,93888.31
2019-05-05T03:31:26.017Z,93882.98
2019-05-05T03:33:48.976Z,93885.23
2019-05-05T03:36:14.971Z,93876.97
2019-05-05T03:38:41.001Z,93876.84
2019-05-05T03:41:06.992Z,93872.34
2019-05-05T03:43:34.225Z,93869.77
2019-05-05T03:45:59.010Z,93872.44
2019-05-05T03:48:25.028Z,93865.78
2019-05-05T03:50:51.041Z,93856.45
2019-05-05T03:53:17.044Z,93859.66
2019-05-05T03:55:43.962Z,93865.50
2019-05-05T03:58:09.055Z,93861.91
2019-05-05T04:00:35.074Z,93855.67
2019-05-05T04:03:01.071Z,93865.91
2019-05-05T04:05:27.084Z,93872.98
2019-05-05T04:07:54.529Z,93868.16
2019-05-05T04:10:19.094Z,93879.73
2019-05-05T04:12:45.121Z,93883.09
2019-05-05T04:15:11.123Z,93886.30
2019-05-05T04:17:37.132Z,93888.95
2019-05-05T04:20:03.846Z,93885.75
2019-05-05T04:22:29.142Z,93882.70
2019-05-05T04:24:55.157Z,93897.35
2019-05-05T04:27:21.181Z,93903.06
2019-05-05T04:29:47.278Z,93907.77
2019-05-05T04:32:14.039Z,93918.02
2019-05-05T04:34:39.294Z,93920.31
2019-05-05T04:37:05.499Z,93927.52
2019-05-05T04:39:31.470Z,93938.04
2019-05-05T04:41:57.502Z,93936.98
2019-05-05T04:44:23.709Z,93932.48
2019-05-05T04:46:49.498Z,93923.57
2019-05-05T04:49:15.518Z,93929.82
2019-05-05T04:51:47.654Z,93926.33
2019-05-05T04:54:07.539Z,93921.55
2019-05-05T04:56:34.357Z,93930.88
2019-05-05T04:58:59.573Z,93944.88
2019-05-05T05:01:26.327Z,93940.75
2019-05-05T05:03:54.203Z,93929.82
2019-05-05T05:06:18.321Z,93926.10
2019-05-05T05:08:44.498Z,93911.87
2019-05-05T05:11:10.346Z,93919.86
2019-05-05T05:13:36.368Z,93930.64
2019-05-05T05:16:04.394Z,93928.77
2019-05-05T05:18:28.380Z,93928.53
2019-05-05T05:20:54.956Z,93930.00
2019-05-05T05:23:20.394Z,93927.10
2019-05-05T05:25:46.413Z,93930.05
2019-05-05T05:28:14.154Z,93930.59
2019-05-05T05:30:38.430Z,93918.06
2019-05-05T05:33:04.517Z,93923.16
2019-05-05T05:35:30.429Z,93910.66
2019-05-05T05:37:57.760Z,93896.42
2019-05-05T05:40:23.646Z,93886.69
2019-05-05T05:42:48.513Z,93889.35
2019-05-05T05:45:14.663Z,93896.94
2019-05-05T05:47:40.553Z,93892.15
2019-05-05T05:50:06.594Z,93901.47
2019-05-05T05:52:34.395Z,93908.23
2019-05-05T05:54:58.618Z,93896.75
2019-05-05T05:57:24.616Z,93890.23
2019-05-05T05:59:50.635Z,93888.39
2019-05-05T06:02:16.623Z,93887.43
2019-05-05T06:04:44.445Z,93880.39
2019-05-05T06:07:08.668Z,93877.73
2019-05-05T06:09:34.709Z,93886.52
2019-05-05T06:12:00.742Z,93866.13
2019-05-05T06:14:27.192Z,93874.11
2019-05-05T06:16:54.038Z,93883.05
2019-05-05T06:19:19.991Z,93881.73
2019-05-05T06:21:46.017Z,93890.50
2019-05-05T06:24:13.642Z,93895.05
2019-05-05T06:26:38.044Z,93902.39
2019-05-05T06:29:04.484Z,93901.98
2019-05-05T06:31:30.057Z,93897.06
2019-05-05T06:33:56.080Z,93905.84
2019-05-05T06:36:23.435Z,93909.45
2019-05-05T06:38:48.125Z,93915.98
2019-05-05T06:41:14.700Z,93908.41
2019-05-05T06:43:40.205Z,93921.31
2019-05-05T06:46:06.230Z,93921.31
2019-05-05T06:48:34.231Z,93927.56
2019-05-05T06:50:58.253Z,93932.61
2019-05-05T06:53:24.288Z,93941.19
2019-05-05T06:55:51.801Z,93945.05
2019-05-05T06:58:16.309Z,93951.20
2019-05-05T07:00:44.072Z,93956.94
2019-05-05T07:03:08.717Z,93943.21
2019-05-05T07:05:35.592Z,93941.47
2019-05-05T07:08:01.583Z,93941.75
2019-05-05T07:10:27.602Z,93931.09
2019-05-05T07:12:54.353Z,93922.46
2019-05-05T07:15:19.621Z,93915.42
2019-05-05T07:17:45.748Z,93913.04
2019-05-05T07:20:13.597Z,93908.12
2019-05-05T07:22:37.978Z,93908.40
2019-05-05T07:25:04.737Z,93917.72
2019-05-05T07:27:29.982Z,93928.79
2019-05-05T07:29:56.139Z,93927.50
2019-05-05T07:32:24.313Z,93931.40
2019-05-05T07:34:48.334Z,93923.51
2019-05-05T07:37:14.628Z,93924.73
2019-05-05T07:39:40.649Z,93929.02
2019-05-05T07:42:06.678Z,93927.86
2019-05-05T07:44:33.914Z,93932.27
2019-05-05T07:46:58.743Z,93927.73
2019-05-05T07:49:24.789Z,93925.89
2019-05-05T07:51:50.821Z,93919.23
2019-05-05T07:54:16.814Z,93924.45
2019-05-05T07:56:44.416Z,93918.17
2019-05-05T07:59:09.178Z,93916.61
2019-05-05T08:01:35.195Z,93927.67
2019-05-05T08:04:01.232Z,93926.66
2019-05-05T08:06:27.245Z,93918.53
2019-05-05T08:08:54.582Z,93929.59
2019-05-05T08:11:19.239Z,93922.87
2019-05-05T08:13:45.269Z,93925.53
2019-05-05T08:16:11.275Z,93931.55
2019-05-05T08:18:37.318Z,93924.06
2019-05-05T08:21:04.295Z,93914.23
2019-05-05T08:23:32.628Z,93917.30
2019-05-05T08:25:55.487Z,93925.58
2019-05-05T08:28:23.541Z,93922.22
2019-05-05T08:30:47.504Z,93921.45
2019-05-05T08:33:14.082Z,93912.70
2019-05-05T08:35:39.535Z,93917.77
2019-05-05T08:38:05.541Z,93928.28
2019-05-05T08:40:31.542Z,93915.38
2019-05-05T08:42:57.640Z,93919.09
2019-05-05T08:45:26.544Z,93918.69
2019-05-05T08:47:49.686Z,93919.60
2019-05-05T08:50:15.705Z,93923.50
2019-05-05T08:52:41.717Z,93930.27
2019-05-05T08:55:07.911Z,93922.68
2019-05-05T08:57:34.189Z,93925.75
2019-05-05T09:00:00.588Z,93930.67
2019-05-05T09:02:26.668Z,93930.27
2019-05-05T09:04:53.790Z,93940.09
2019-05-05T09:07:18.842Z,93941.33
2019-05-05T09:09:44.873Z,93950.25
2019-05-05T09:12:10.882Z,93943.30
2019-05-05T09:14:37.114Z,93946.38
2019-05-05T09:17:04.431Z,93927.42
2019-05-05T09:19:29.127Z,93937.98
2019-05-05T09:21:55.160Z,93930.91
2019-05-05T09:24:21.209Z,93914.92
2019-05-05T09:26:47.271Z,93928.75
2019-05-05T09:29:13.732Z,93922.50
2019-05-05T09:31:39.289Z,93910.10
2019-05-05T09:34:05.321Z,93912.66
2019-05-05T09:36:31.332Z,93901.09
2019-05-05T09:38:57.343Z,93902.42
2019-05-05T09:41:23.598Z,93897.09
2019-05-05T09:43:49.451Z,93890.70
2019-05-05T09:46:15.466Z,93897.09
2019-05-05T09:48:41.463Z,93887.77
2019-05-05T09:51:07.485Z,93880.97
2019-05-05T09:53:34.513Z,93884.87
2019-05-05T09:55:59.496Z,93889.78
2019-05-05T09:58:25.633Z,93888.45
2019-05-05T10:00:51.631Z,93892.86
2019-05-05T10:03:17.650Z,93881.37
2019-05-05T10:05:43.668Z,93872.47
2019-05-05T10:08:09.664Z,93875.64
2019-05-05T10:10:35.682Z,93872.98
2019-05-05T10:13:03.975Z,93869.80
2019-05-05T10:15:27.803Z,93872.98
2019-05-05T10:17:54.410Z,93871.23
2019-05-05T10:20:20.461Z,93858.59
2019-05-05T10:22:46.489Z,93862.31
2019-05-05T10:25:12.488Z,93855.66
2019-05-05T10:27:44.950Z,93851.66
2019-05-05T10:30:05.014Z,93864.70
2019-05-05T10:32:31.047Z,93865.73
2019-05-05T10:34:57.053Z,93867.20
2019-05-05T10:37:23.510Z,93870.27
2019-05-05T10:39:49.295Z,93869.45
2019-05-05T10:42:15.433Z,93862.92
2019-05-05T10:44:41.472Z,93853.59
2019-05-05T10:47:07.524Z,93849.59
2019-05-05T10:52:11.664Z,93856.33
2019-05-05T10:54:43.998Z,93873.64
2019-05-05T10:57:04.184Z,93875.11
2019-05-05T10:59:29.692Z,93879.11
2019-05-05T11:01:55.796Z,93873.47
2019-05-05T11:04:21.822Z,93865.89
2019-05-05T11:06:47.852Z,93865.71
2019-05-05T11:09:14.048Z,93875.45
2019-05-05T11:11:39.938Z,93865.30
2019-05-05T11:14:05.966Z,93867.97
2019-05-05T11:16:32.036Z,93867.69
2019-05-05T11:18:58.066Z,93859.28
2019-05-05T11:21:24.107Z,93853.68
2019-05-05T11:23:50.107Z,93864.84
2019-05-05T11:26:16.292Z,93856.85
2019-05-05T11:28:44.380Z,93842.72
2019-05-05T11:31:08.326Z,93849.00
2019-05-05T11:33:34.606Z,93852.17
2019-05-05T11:36:00.336Z,93852.17
2019-05-05T11:38:26.358Z,93850.02
2019-05-05T11:40:54.474Z,93850.16
2019-05-05T11:43:18.464Z,93839.59
2019-05-05T11:45:44.488Z,93841.34
2019-05-05T11:48:10.608Z,93842.26
2019-05-05T11:50:36.590Z,93831.43
2019-05-05T11:53:03.917Z,93836.89
2019-05-05T11:55:28.662Z,93843.41
2019-05-05T11:57:57.569Z,93846.62
2019-05-05T12:00:20.763Z,93835.97
2019-05-05T12:02:46.788Z,93832.48
2019-05-05T12:05:14.089Z,93828.48
2019-05-05T12:07:38.893Z,93834.87
2019-05-05T12:10:04.908Z,93834.87
2019-05-05T12:12:30.951Z,93834.97
2019-05-05T12:14:57.028Z,93827.52
2019-05-05T12:17:24.294Z,93826.19
2019-05-05T12:19:49.183Z,93827.91
2019-05-05T12:22:15.281Z,93821.38
2019-05-05T12:24:41.279Z,93828.95
2019-05-05T12:27:07.282Z,93834.28
2019-05-05T12:29:33.749Z,93821.89
2019-05-05T12:31:59.500Z,93820.14
2019-05-05T12:34:25.533Z,93819.22
2019-05-05T12:36:53.757Z,93822.81
2019-05-05T12:39:17.709Z,93828.55
2019-05-05T12:41:43.745Z,93824.69
2019-05-05T12:44:09.785Z,93818.95
2019-05-05T12:46:35.810Z,93814.67
2019-05-05T12:49:01.808Z,93813.72
2019-05-05T12:51:27.897Z,93807.20
2019-05-05T12:53:54.069Z,93800.53
2019-05-05T12:56:19.949Z,93808.94
2019-05-05T12:58:45.972Z,93807.61
2019-05-05T13:01:14.145Z,93804.94
2019-05-05T13:03:38.022Z,93798.38
2019-05-05T13:06:04.190Z,93794.93
2019-05-05T13:08:30.080Z,93797.19
2019-05-05T13:10:56.092Z,93799.30
2019-05-05T13:13:22.155Z,93800.26
2019-05-05T13:15:48.201Z,93802.10
2019-05-05T13:18:14.200Z,93803.84
2019-05-05T13:20:40.218Z,93803.95
2019-05-05T13:23:06.281Z,93800.88
2019-05-05T13:25:33.628Z,93803.53
2019-05-05T13:27:58.332Z,93805.28
2019-05-05T13:30:24.338Z,93798.34
2019-05-05T13:32:50.348Z,93783.97
2019-05-05T13:35:16.383Z,93785.84
2019-05-05T13:37:44.345Z,93789.84
2019-05-05T13:40:08.470Z,93796.60
2019-05-05T13:42:34.477Z,93801.41
2019-05-05T13:45:00.553Z,93799.16
2019-05-05T13:47:26.565Z,93808.08
2019-05-05T13:49:54.257Z,93795.27
2019-05-05T13:52:18.650Z,93797.02
2019-05-05T13:54:44.680Z,93791.27
2019-05-05T13:57:10.761Z,93795.78
2019-05-05T13:59:36.790Z,93808.69
2019-05-05T14:02:02.867Z,93806.16
2019-05-05T14:04:28.878Z,93807.48
2019-05-05T14:06:55.099Z,93806.67
2019-05-05T14:09:21.116Z,93809.33
2019-05-05T14:11:47.291Z,93819.70
2019-05-05T14:14:13.923Z,93823.56
2019-05-05T14:16:39.380Z,93821.45
2019-05-05T14:19:05.512Z,93815.48
2019-05-05T14:21:31.527Z,93812.91
2019-05-05T14:23:57.571Z,93813.87
2019-05-05T14:26:27.987Z,93813.45
2019-05-05T14:28:49.618Z,93810.66
2019-05-05T14:31:15.627Z,93799.59
2019-05-05T14:33:43.492Z,93796.02
2019-05-05T14:36:07.677Z,93797.34
2019-05-05T14:38:34.128Z,93798.27
2019-05-05T14:40:59.678Z,93804.92
2019-05-05T14:43:25.706Z,93806.39
2019-05-05T14:45:51.707Z,93807.82
2019-05-05T14:48:17.762Z,93799.05
2019-05-05T14:50:43.857Z,93799.83
2019-05-05T14:53:09.810Z,93808.78
2019-05-05T14:55:35.895Z,93819.42
2019-05-05T14:58:03.810Z,93825.13
2019-05-05T15:00:27.918Z,93818.48
2019-05-05T15:02:54.463Z,93801.16
2019-05-05T15:05:19.963Z,93799.14
2019-05-05T15:07:45.967Z,93801.81
2019-05-05T15:10:14.311Z,93803.55
2019-05-05T15:12:38.085Z,93804.06
2019-05-05T15:15:06.990Z,93804.06
2019-05-05T15:17:30.115Z,93800.61
2019-05-05T15:19:56.152Z,93800.06
2019-05-05T15:22:23.937Z,93804.60
2019-05-05T15:24:48.202Z,93797.53
2019-05-05T15:27:14.296Z,93800.20
2019-05-05T15:29:40.312Z,93807.78
2019-05-05T15:32:06.357Z,93806.45
2019-05-05T15:34:34.251Z,93807.50
2019-05-05T15:36:58.424Z,93799.10
2019-05-05T15:39:24.706Z,93801.35
2019-05-05T15:41:50.570Z,93800.53
2019-05-05T15:44:16.590Z,93799.61
2019-05-05T15:46:44.243Z,93805.86
2019-05-05T15:49:08.666Z,93801.86
2019-05-05T15:51:34.665Z,93816.92
2019-05-05T15:54:00.783Z,93812.93
2019-05-05T15:56:26.808Z,93793.88
2019-05-05T15:58:52.823Z,93786.94
2019-05-05T16:01:18.870Z,93801.17
2019-05-05T16:03:44.886Z,93803.43
2019-05-05T16:06:10.942Z,93797.19
2019-05-05T16:08:37.001Z,93804.25
2019-05-05T16:11:03.698Z,93800.77
2019-05-05T16:13:29.061Z,93805.17
2019-05-05T16:15:55.790Z,93811.32
2019-05-05T16:18:21.129Z,93809.06
2019-05-05T16:20:47.135Z,93813.98
2019-05-05T16:23:14.323Z,93817.05
2019-05-05T16:25:41.471Z,93820.13
2019-05-05T16:28:05.546Z,93823.17
2019-05-05T16:30:31.229Z,93831.29
2019-05-05T16:32:57.270Z,93841.02
2019-05-05T16:35:23.775Z,93840.33
2019-05-05T16:37:49.344Z,93831.02
2019-05-05T16:40:15.359Z,93826.48
2019-05-05T16:42:41.366Z,93825.14
2019-05-05T16:45:07.405Z,93827.30
2019-05-05T16:47:33.712Z,93838.45
2019-05-05T16:49:59.462Z,93834.64
2019-05-05T16:52:25.518Z,93827.88
2019-05-05T16:54:53.331Z,93824.81
2019-05-05T16:57:17.669Z,93829.22
2019-05-05T16:59:44.223Z,93836.56
2019-05-05T17:02:09.743Z,93836.97
2019-05-05T17:04:35.753Z,93833.36
2019-05-05T17:07:03.909Z,93831.10
2019-05-05T17:09:27.800Z,93833.13
2019-05-05T17:11:53.790Z,93829.72
2019-05-05T17:14:19.846Z,93837.19
2019-05-05T17:16:45.937Z,93844.54
2019-05-05T17:19:13.818Z,93843.95
2019-05-05T17:21:38.008Z,93853.77
2019-05-05T17:24:04.098Z,93853.86
2019-05-05T17:26:30.110Z,93854.95
2019-05-05T17:28:56.176Z,93838.57
2019-05-05T17:31:24.244Z,93838.47
2019-05-05T17:33:48.553Z,93836.22
2019-05-05T17:36:14.557Z,93850.73
2019-05-05T17:38:40.577Z,93850.32
2019-05-05T17:41:06.623Z,93854.86
2019-05-05T17:43:34.067Z,93860.05
2019-05-05T17:45:59.211Z,93861.80
2019-05-05T17:48:25.225Z,93866.61
2019-05-05T17:50:51.273Z,93870.61
2019-05-05T17:53:20.473Z,93870.47
2019-05-05T17:55:46.491Z,93874.19
2019-05-05T17:58:13.717Z,93874.60
2019-05-05T18:00:38.824Z,93870.61
2019-05-05T18:03:05.379Z,93870.61
2019-05-05T18:05:34.090Z,93873.55
2019-05-05T18:07:58.349Z,93878.88
2019-05-05T18:10:24.895Z,93888.70
2019-05-05T18:12:54.804Z,93906.33
2019-05-05T18:15:25.562Z,93915.66
2019-05-05T18:17:51.731Z,93906.33
2019-05-05T18:20:17.741Z,93897.39
2019-05-05T18:22:43.851Z,93913.50
2019-05-05T18:27:35.408Z,93932.55
2019-05-05T18:30:03.827Z,93921.08
2019-05-05T18:32:27.702Z,93918.93
2019-05-05T18:34:54.484Z,93928.25
2019-05-05T18:37:19.801Z,93931.64
2019-05-05T18:39:45.808Z,93929.48
2019-05-05T18:42:13.840Z,93932.55
2019-05-05T18:44:37.883Z,93937.06
2019-05-05T18:47:03.965Z,93940.14
2019-05-05T18:49:29.986Z,93955.84
2019-05-05T18:51:55.987Z,93960.22
2019-05-05T18:54:22.020Z,93955.98
2019-05-05T18:56:48.056Z,93956.98
2019-05-05T18:59:14.086Z,93958.97
2019-05-05T19:01:40.173Z,93952.95
2019-05-05T19:04:06.190Z,93954.78
2019-05-05T19:06:34.376Z,93959.98
2019-05-05T19:08:58.439Z,93942.57
2019-05-05T19:11:24.609Z,93954.42
2019-05-05T19:13:50.590Z,93939.91
2019-05-05T19:16:16.614Z,93946.98
2019-05-05T19:18:44.617Z,93952.81
2019-05-05T19:21:08.727Z,93942.84
2019-05-05T19:23:35.630Z,93945.52
2019-05-05T19:26:01.218Z,93953.91
2019-05-05T19:28:41.058Z,93955.66
2019-05-05T19:30:54.949Z,93960.06
2019-05-05T19:33:19.332Z,93964.57
2019-05-05T19:35:47.376Z,93958.38
2019-05-05T19:38:15.533Z,93964.80
2019-05-05T19:40:40.103Z,93970.08
2019-05-05T19:43:06.095Z,93966.20
2019-05-05T19:45:34.404Z,93972.56
2019-05-05T19:47:59.641Z,93973.48
2019-05-05T19:50:25.791Z,93963.37
2019-05-05T19:53:04.246Z,93951.38
2019-05-05T19:55:28.421Z,93946.84
2019-05-05T19:57:54.495Z,93948.81
2019-05-05T20:00:20.829Z,93934.39
2019-05-05T20:03:00.414Z,93932.38
2019-05-05T20:05:13.747Z,93924.15
2019-05-05T20:07:39.478Z,93925.99
2019-05-05T20:10:05.528Z,93925.48
2019-05-05T20:12:33.410Z,93927.33
2019-05-05T20:14:57.602Z,93931.73
2019-05-05T20:17:23.633Z,93933.48
2019-05-05T20:19:49.677Z,93936.55
2019-05-05T20:22:15.739Z,93936.14
2019-05-05T20:24:41.744Z,93933.61
2019-05-05T20:27:07.768Z,93936.83
2019-05-05T20:29:36.751Z,93932.60
2019-05-05T20:31:59.814Z,93922.08
2019-05-05T20:34:25.862Z,93927.64
2019-05-05T20:36:53.590Z,93924.66
2019-05-05T20:39:17.934Z,93921.20
2019-05-05T20:41:43.952Z,93915.47
2019-05-05T20:44:09.966Z,93909.32
2019-05-05T20:46:36.009Z,93905.73
2019-05-05T20:49:03.957Z,93908.12
2019-05-05T20:51:28.101Z,93910.89
2019-05-05T20:53:54.426Z,93910.48
2019-05-05T20:56:20.127Z,93911.94
2019-05-05T20:58:46.125Z,93916.76
2019-05-05T21:01:13.853Z,93920.85
2019-05-05T21:03:38.151Z,93917.78
2019-05-05T21:06:04.618Z,93916.98
2019-05-05T21:08:30.204Z,93915.66
2019-05-05T21:10:56.200Z,93925.36
2019-05-05T21:13:22.237Z,93930.81
2019-05-05T21:15:48.266Z,93926.92
2019-05-05T21:18:14.515Z,93923.88
2019-05-05T21:20:40.287Z,93915.89
2019-05-05T21:23:06.367Z,93919.75
2019-05-05T21:25:33.754Z,93917.73
2019-05-05T21:27:58.402Z,93923.56
2019-05-05T21:30:24.411Z,93929.44
2019-05-05T21:32:50.434Z,93926.87
2019-05-05T21:35:16.456Z,93927.28
2019-05-05T21:37:44.734Z,93931.69
2019-05-05T21:40:08.507Z,93926.46
2019-05-05T21:42:35.004Z,93930.17
2019-05-05T21:45:00.522Z,93932.33
2019-05-05T21:47:26.520Z,93927.92
2019-05-05T21:49:54.220Z,93924.44
2019-05-05T21:52:18.531Z,93916.96
2019-05-05T21:54:44.551Z,93919.63
2019-05-05T21:57:10.550Z,93912.97
2019-05-05T21:59:36.538Z,93917.09
2019-05-05T22:02:03.962Z,93916.55
2019-05-05T22:04:28.552Z,93910.44
2019-05-05T22:06:54.726Z,93907.36
2019-05-05T22:09:20.716Z,93914.53
2019-05-05T22:11:46.737Z,93922.52
2019-05-05T22:14:13.983Z,93927.44
2019-05-05T22:16:38.775Z,93936.89
2019-05-05T22:19:04.774Z,93939.04
2019-05-05T22:21:30.782Z,93946.62
2019-05-05T22:23:56.802Z,93946.62
2019-05-05T22:26:24.022Z,93941.30
2019-05-05T22:28:48.786Z,93936.06
2019-05-05T22:31:14.811Z,93940.98
2019-05-05T22:33:40.807Z,93941.94
2019-05-05T22:36:07.009Z,93937.94
2019-05-05T22:38:34.015Z,93938.45
2019-05-05T22:40:58.847Z,93936.20
2019-05-05T22:43:24.866Z,93938.86
2019-05-05T22:45:50.876Z,93933.13
2019-05-05T22:48:16.897Z,93933.22
2019-05-05T22:50:43.651Z,93935.51
2019-05-05T22:53:08.907Z,93943.50
2019-05-05T22:55:34.921Z,93946.16
2019-05-05T22:58:00.914Z,93942.55
2019-05-05T23:00:29.661Z,93932.43
2019-05-05T23:02:54.940Z,93932.94
2019-05-05T23:05:18.961Z,93935.09
2019-05-05T23:07:44.964Z,93945.84
2019-05-05T23:10:10.979Z,93936.12
2019-05-05T23:12:37.011Z,93942.77
2019-05-05T23:15:04.055Z,93937.99
2019-05-05T23:17:29.131Z,93937.06
2019-05-05T23:19:55.128Z,93943.73
2019-05-05T23:22:21.145Z,93941.06
2019-05-05T23:24:47.154Z,93939.42
2019-05-05T23:27:14.547Z,93936.25
2019-05-05T23:29:39.188Z,93939.32
2019-05-05T23:32:05.211Z,93941.58
2019-05-05T23:34:31.209Z,93942.50
2019-05-05T23:36:57.201Z,93937.17
2019-05-05T23:39:24.273Z,93948.73
2019-05-05T23:41:49.212Z,93953.28
2019-05-05T23:44:15.238Z,93952.73
2019-05-05T23:46:41.257Z,93951.13
2019-05-05T23:49:07.249Z,93951.95
2019-05-05T23:51:34.663Z,93953.78
2019-05-05T23:53:59.265Z,93956.45
2019-05-05T23:56:25.269Z,93949.66
2019-05-05T23:58:51.282Z,93944.05
